sensor_id;sensor_type;location;lat;lon;timestamp;P1;durP1;ratioP1;P2;durP2;ratioP2
70213;SDS011;60138;55.808;37.078;2023-09-18T00:00:43;15.27;;;9.30;;
70213;SDS011;60138;55.808;37.078;2023-09-18T00:03:09;13.93;;;9.77;;
70213;SDS011;60138;55.808;37.078;2023-09-18T00:05:35;14.15;;;9.57;;
70213;SDS011;60138;55.808;37.078;2023-09-18T00:08:01;14.48;;;10.27;;
70213;SDS011;60138;55.808;37.078;2023-09-18T00:10:27;14.93;;;10.23;;
70213;SDS011;60138;55.808;37.078;2023-09-18T00:12:53;14.00;;;10.65;;
70213;SDS011;60138;55.808;37.078;2023-09-18T00:15:19;16.40;;;9.70;;
70213;SDS011;60138;55.808;37.078;2023-09-18T00:17:44;16.38;;;10.02;;
70213;SDS011;60138;55.808;37.078;2023-09-18T00:20:10;14.80;;;9.13;;
70213;SDS011;60138;55.808;37.078;2023-09-18T00:22:36;13.27;;;8.75;;
70213;SDS011;60138;55.808;37.078;2023-09-18T00:25:02;14.83;;;9.27;;
70213;SDS011;60138;55.808;37.078;2023-09-18T00:27:29;15.07;;;8.63;;
70213;SDS011;60138;55.808;37.078;2023-09-18T00:29:55;12.85;;;9.15;;
70213;SDS011;60138;55.808;37.078;2023-09-18T00:32:21;14.02;;;10.15;;
70213;SDS011;60138;55.808;37.078;2023-09-18T00:34:47;13.55;;;8.63;;
70213;SDS011;60138;55.808;37.078;2023-09-18T00:37:13;15.38;;;10.00;;
70213;SDS011;60138;55.808;37.078;2023-09-18T00:39:39;12.30;;;8.43;;
70213;SDS011;60138;55.808;37.078;2023-09-18T00:42:06;14.52;;;8.60;;
70213;SDS011;60138;55.808;37.078;2023-09-18T00:44:32;12.70;;;9.88;;
70213;SDS011;60138;55.808;37.078;2023-09-18T00:46:58;13.90;;;9.40;;
70213;SDS011;60138;55.808;37.078;2023-09-18T00:49:25;12.82;;;9.07;;
70213;SDS011;60138;55.808;37.078;2023-09-18T00:51:51;15.75;;;9.02;;
70213;SDS011;60138;55.808;37.078;2023-09-18T00:54:17;18.67;;;9.33;;
70213;SDS011;60138;55.808;37.078;2023-09-18T00:56:47;17.70;;;9.30;;
70213;SDS011;60138;55.808;37.078;2023-09-18T00:59:13;13.95;;;9.38;;
70213;SDS011;60138;55.808;37.078;2023-09-18T01:01:42;12.88;;;9.10;;
70213;SDS011;60138;55.808;37.078;2023-09-18T01:04:10;14.80;;;8.38;;
70213;SDS011;60138;55.808;37.078;2023-09-18T01:06:35;14.53;;;9.50;;
70213;SDS011;60138;55.808;37.078;2023-09-18T01:09:02;14.60;;;9.10;;
70213;SDS011;60138;55.808;37.078;2023-09-18T01:14:31;16.25;;;10.02;;
70213;SDS011;60138;55.808;37.078;2023-09-18T01:17:14;13.80;;;9.57;;
70213;SDS011;60138;55.808;37.078;2023-09-18T01:19:45;14.27;;;9.48;;
70213;SDS011;60138;55.808;37.078;2023-09-18T01:22:18;15.75;;;9.65;;
70213;SDS011;60138;55.808;37.078;2023-09-18T01:24:45;16.73;;;9.95;;
70213;SDS011;60138;55.808;37.078;2023-09-18T01:27:12;13.57;;;8.95;;
70213;SDS011;60138;55.808;37.078;2023-09-18T01:29:40;15.63;;;9.47;;
70213;SDS011;60138;55.808;37.078;2023-09-18T01:32:06;12.77;;;10.00;;
70213;SDS011;60138;55.808;37.078;2023-09-18T01:34:33;13.75;;;9.80;;
70213;SDS011;60138;55.808;37.078;2023-09-18T01:37:03;17.05;;;9.35;;
70213;SDS011;60138;55.808;37.078;2023-09-18T01:39:30;14.30;;;9.30;;
70213;SDS011;60138;55.808;37.078;2023-09-18T01:42:02;14.50;;;8.87;;
70213;SDS011;60138;55.808;37.078;2023-09-18T01:44:29;13.73;;;9.25;;
70213;SDS011;60138;55.808;37.078;2023-09-18T01:46:58;15.07;;;9.48;;
70213;SDS011;60138;55.808;37.078;2023-09-18T01:49:31;11.65;;;9.23;;
70213;SDS011;60138;55.808;37.078;2023-09-18T01:51:58;12.45;;;8.70;;
70213;SDS011;60138;55.808;37.078;2023-09-18T01:54:24;11.43;;;9.00;;
70213;SDS011;60138;55.808;37.078;2023-09-18T01:56:51;12.00;;;8.57;;
70213;SDS011;60138;55.808;37.078;2023-09-18T01:59:17;11.77;;;7.88;;
70213;SDS011;60138;55.808;37.078;2023-09-18T02:01:44;13.13;;;9.23;;
70213;SDS011;60138;55.808;37.078;2023-09-18T02:04:10;11.63;;;8.30;;
70213;SDS011;60138;55.808;37.078;2023-09-18T02:06:36;10.93;;;7.60;;
70213;SDS011;60138;55.808;37.078;2023-09-18T02:09:02;13.32;;;8.30;;
70213;SDS011;60138;55.808;37.078;2023-09-18T02:11:28;9.48;;;7.35;;
70213;SDS011;60138;55.808;37.078;2023-09-18T02:13:53;12.98;;;8.10;;
70213;SDS011;60138;55.808;37.078;2023-09-18T02:16:19;10.77;;;7.43;;
70213;SDS011;60138;55.808;37.078;2023-09-18T02:18:45;9.65;;;8.50;;
70213;SDS011;60138;55.808;37.078;2023-09-18T02:21:11;12.82;;;8.18;;
70213;SDS011;60138;55.808;37.078;2023-09-18T02:23:43;9.90;;;7.70;;
70213;SDS011;60138;55.808;37.078;2023-09-18T02:26:11;12.50;;;7.00;;
70213;SDS011;60138;55.808;37.078;2023-09-18T02:28:37;11.55;;;7.35;;
70213;SDS011;60138;55.808;37.078;2023-09-18T02:31:03;12.03;;;7.90;;
70213;SDS011;60138;55.808;37.078;2023-09-18T02:33:29;11.38;;;7.95;;
70213;SDS011;60138;55.808;37.078;2023-09-18T02:35:55;12.60;;;8.63;;
70213;SDS011;60138;55.808;37.078;2023-09-18T02:38:21;13.37;;;8.13;;
70213;SDS011;60138;55.808;37.078;2023-09-18T02:40:46;11.18;;;7.45;;
70213;SDS011;60138;55.808;37.078;2023-09-18T02:43:12;21.33;;;13.83;;
70213;SDS011;60138;55.808;37.078;2023-09-18T02:45:39;34.78;;;31.17;;
70213;SDS011;60138;55.808;37.078;2023-09-18T02:48:05;22.27;;;18.85;;
70213;SDS011;60138;55.808;37.078;2023-09-18T02:50:31;25.65;;;19.88;;
70213;SDS011;60138;55.808;37.078;2023-09-18T02:52:57;21.23;;;14.00;;
70213;SDS011;60138;55.808;37.078;2023-09-18T02:55:23;14.80;;;10.93;;
70213;SDS011;60138;55.808;37.078;2023-09-18T02:57:48;12.03;;;10.10;;
70213;SDS011;60138;55.808;37.078;2023-09-18T03:00:14;34.35;;;30.83;;
70213;SDS011;60138;55.808;37.078;2023-09-18T03:02:40;64.37;;;57.63;;
70213;SDS011;60138;55.808;37.078;2023-09-18T03:05:06;41.85;;;36.78;;
70213;SDS011;60138;55.808;37.078;2023-09-18T03:07:32;23.15;;;17.77;;
70213;SDS011;60138;55.808;37.078;2023-09-18T03:09:58;23.03;;;15.90;;
70213;SDS011;60138;55.808;37.078;2023-09-18T03:12:24;17.25;;;13.70;;
70213;SDS011;60138;55.808;37.078;2023-09-18T03:14:50;11.73;;;8.77;;
70213;SDS011;60138;55.808;37.078;2023-09-18T03:17:16;12.57;;;8.77;;
70213;SDS011;60138;55.808;37.078;2023-09-18T03:19:42;11.32;;;7.45;;
70213;SDS011;60138;55.808;37.078;2023-09-18T03:22:08;10.38;;;7.40;;
70213;SDS011;60138;55.808;37.078;2023-09-18T03:24:34;10.48;;;7.32;;
70213;SDS011;60138;55.808;37.078;2023-09-18T03:27:00;12.98;;;6.70;;
70213;SDS011;60138;55.808;37.078;2023-09-18T03:29:25;10.68;;;7.40;;
70213;SDS011;60138;55.808;37.078;2023-09-18T03:31:52;13.87;;;6.00;;
70213;SDS011;60138;55.808;37.078;2023-09-18T03:34:19;9.57;;;7.18;;
70213;SDS011;60138;55.808;37.078;2023-09-18T03:36:45;12.15;;;6.93;;
70213;SDS011;60138;55.808;37.078;2023-09-18T03:39:11;10.45;;;7.30;;
70213;SDS011;60138;55.808;37.078;2023-09-18T03:41:37;9.23;;;6.63;;
70213;SDS011;60138;55.808;37.078;2023-09-18T03:44:02;8.98;;;6.85;;
70213;SDS011;60138;55.808;37.078;2023-09-18T03:46:28;9.52;;;6.35;;
70213;SDS011;60138;55.808;37.078;2023-09-18T03:48:55;8.23;;;5.77;;
70213;SDS011;60138;55.808;37.078;2023-09-18T03:51:21;10.35;;;6.30;;
70213;SDS011;60138;55.808;37.078;2023-09-18T03:53:47;11.77;;;6.70;;
70213;SDS011;60138;55.808;37.078;2023-09-18T03:56:12;8.35;;;6.10;;
70213;SDS011;60138;55.808;37.078;2023-09-18T03:58:40;11.57;;;5.88;;
70213;SDS011;60138;55.808;37.078;2023-09-18T04:01:07;9.32;;;6.82;;
70213;SDS011;60138;55.808;37.078;2023-09-18T04:03:33;8.60;;;6.00;;
70213;SDS011;60138;55.808;37.078;2023-09-18T04:06:01;8.38;;;6.25;;
70213;SDS011;60138;55.808;37.078;2023-09-18T04:08:27;8.70;;;6.53;;
70213;SDS011;60138;55.808;37.078;2023-09-18T04:10:54;9.50;;;6.00;;
70213;SDS011;60138;55.808;37.078;2023-09-18T04:13:20;10.77;;;6.90;;
70213;SDS011;60138;55.808;37.078;2023-09-18T04:15:46;12.10;;;6.40;;
70213;SDS011;60138;55.808;37.078;2023-09-18T04:18:11;12.07;;;7.40;;
70213;SDS011;60138;55.808;37.078;2023-09-18T04:20:37;8.45;;;6.72;;
70213;SDS011;60138;55.808;37.078;2023-09-18T04:23:20;9.97;;;5.97;;
70213;SDS011;60138;55.808;37.078;2023-09-18T04:25:51;9.63;;;6.68;;
70213;SDS011;60138;55.808;37.078;2023-09-18T04:28:19;10.77;;;6.95;;
70213;SDS011;60138;55.808;37.078;2023-09-18T04:30:46;9.85;;;6.38;;
70213;SDS011;60138;55.808;37.078;2023-09-18T04:33:15;9.30;;;7.22;;
70213;SDS011;60138;55.808;37.078;2023-09-18T04:35:43;9.68;;;6.88;;
70213;SDS011;60138;55.808;37.078;2023-09-18T04:38:09;8.55;;;6.68;;
70213;SDS011;60138;55.808;37.078;2023-09-18T04:40:36;10.00;;;6.38;;
70213;SDS011;60138;55.808;37.078;2023-09-18T04:43:02;10.40;;;7.20;;
70213;SDS011;60138;55.808;37.078;2023-09-18T04:45:28;9.17;;;6.07;;
70213;SDS011;60138;55.808;37.078;2023-09-18T04:47:54;10.27;;;5.63;;
70213;SDS011;60138;55.808;37.078;2023-09-18T04:50:20;9.60;;;6.22;;
70213;SDS011;60138;55.808;37.078;2023-09-18T04:52:46;8.43;;;5.97;;
70213;SDS011;60138;55.808;37.078;2023-09-18T04:55:14;8.48;;;6.55;;
70213;SDS011;60138;55.808;37.078;2023-09-18T04:57:39;10.05;;;6.93;;
70213;SDS011;60138;55.808;37.078;2023-09-18T05:00:06;9.77;;;6.63;;
70213;SDS011;60138;55.808;37.078;2023-09-18T05:02:32;11.10;;;6.53;;
70213;SDS011;60138;55.808;37.078;2023-09-18T05:04:57;11.07;;;6.47;;
70213;SDS011;60138;55.808;37.078;2023-09-18T05:07:23;10.18;;;6.68;;
70213;SDS011;60138;55.808;37.078;2023-09-18T05:09:49;11.07;;;6.35;;
70213;SDS011;60138;55.808;37.078;2023-09-18T05:12:15;11.68;;;8.23;;
70213;SDS011;60138;55.808;37.078;2023-09-18T05:14:41;12.33;;;8.20;;
70213;SDS011;60138;55.808;37.078;2023-09-18T05:17:14;8.88;;;6.78;;
70213;SDS011;60138;55.808;37.078;2023-09-18T05:19:40;11.15;;;7.57;;
70213;SDS011;60138;55.808;37.078;2023-09-18T05:22:07;10.55;;;6.93;;
70213;SDS011;60138;55.808;37.078;2023-09-18T05:24:34;11.33;;;6.63;;
70213;SDS011;60138;55.808;37.078;2023-09-18T05:26:59;9.70;;;6.63;;
70213;SDS011;60138;55.808;37.078;2023-09-18T05:29:25;10.37;;;6.93;;
70213;SDS011;60138;55.808;37.078;2023-09-18T05:31:51;9.27;;;7.00;;
70213;SDS011;60138;55.808;37.078;2023-09-18T05:34:17;10.32;;;6.32;;
70213;SDS011;60138;55.808;37.078;2023-09-18T05:36:42;11.65;;;6.53;;
70213;SDS011;60138;55.808;37.078;2023-09-18T05:39:08;9.05;;;5.97;;
70213;SDS011;60138;55.808;37.078;2023-09-18T05:41:34;8.40;;;5.97;;
70213;SDS011;60138;55.808;37.078;2023-09-18T05:44:00;9.27;;;5.78;;
70213;SDS011;60138;55.808;37.078;2023-09-18T05:46:25;8.03;;;6.23;;
70213;SDS011;60138;55.808;37.078;2023-09-18T05:48:51;10.25;;;6.25;;
70213;SDS011;60138;55.808;37.078;2023-09-18T05:51:17;8.20;;;6.20;;
70213;SDS011;60138;55.808;37.078;2023-09-18T05:53:42;8.50;;;6.97;;
70213;SDS011;60138;55.808;37.078;2023-09-18T05:56:08;10.17;;;6.40;;
70213;SDS011;60138;55.808;37.078;2023-09-18T05:58:34;12.00;;;6.13;;
70213;SDS011;60138;55.808;37.078;2023-09-18T06:01:00;11.07;;;6.27;;
70213;SDS011;60138;55.808;37.078;2023-09-18T06:03:29;8.57;;;5.70;;
70213;SDS011;60138;55.808;37.078;2023-09-18T06:05:54;9.15;;;5.97;;
70213;SDS011;60138;55.808;37.078;2023-09-18T06:08:20;12.37;;;5.83;;
70213;SDS011;60138;55.808;37.078;2023-09-18T06:10:46;10.77;;;6.35;;
70213;SDS011;60138;55.808;37.078;2023-09-18T06:13:12;11.07;;;5.68;;
70213;SDS011;60138;55.808;37.078;2023-09-18T06:15:37;9.23;;;5.83;;
70213;SDS011;60138;55.808;37.078;2023-09-18T06:18:03;11.68;;;5.45;;
70213;SDS011;60138;55.808;37.078;2023-09-18T06:20:29;9.67;;;5.80;;
70213;SDS011;60138;55.808;37.078;2023-09-18T06:22:55;10.20;;;5.97;;
70213;SDS011;60138;55.808;37.078;2023-09-18T06:25:20;11.23;;;5.93;;
70213;SDS011;60138;55.808;37.078;2023-09-18T06:27:48;10.50;;;5.90;;
70213;SDS011;60138;55.808;37.078;2023-09-18T06:30:14;12.73;;;6.20;;
70213;SDS011;60138;55.808;37.078;2023-09-18T06:32:40;11.30;;;5.90;;
70213;SDS011;60138;55.808;37.078;2023-09-18T06:35:06;12.20;;;5.95;;
70213;SDS011;60138;55.808;37.078;2023-09-18T06:37:33;9.97;;;6.23;;
70213;SDS011;60138;55.808;37.078;2023-09-18T06:39:59;12.40;;;6.75;;
70213;SDS011;60138;55.808;37.078;2023-09-18T06:42:25;10.02;;;5.47;;
70213;SDS011;60138;55.808;37.078;2023-09-18T06:44:57;8.60;;;5.33;;
70213;SDS011;60138;55.808;37.078;2023-09-18T06:47:24;10.02;;;6.05;;
70213;SDS011;60138;55.808;37.078;2023-09-18T06:49:50;10.45;;;5.90;;
70213;SDS011;60138;55.808;37.078;2023-09-18T06:52:16;14.25;;;5.75;;
70213;SDS011;60138;55.808;37.078;2023-09-18T06:54:41;9.87;;;6.47;;
70213;SDS011;60138;55.808;37.078;2023-09-18T06:57:07;9.80;;;6.43;;
70213;SDS011;60138;55.808;37.078;2023-09-18T06:59:33;14.77;;;6.07;;
70213;SDS011;60138;55.808;37.078;2023-09-18T07:02:00;12.05;;;6.05;;
70213;SDS011;60138;55.808;37.078;2023-09-18T07:04:26;10.68;;;6.00;;
70213;SDS011;60138;55.808;37.078;2023-09-18T07:06:52;13.80;;;7.10;;
70213;SDS011;60138;55.808;37.078;2023-09-18T07:09:17;21.23;;;7.95;;
70213;SDS011;60138;55.808;37.078;2023-09-18T07:11:43;19.55;;;7.20;;
70213;SDS011;60138;55.808;37.078;2023-09-18T07:14:09;13.60;;;6.27;;
70213;SDS011;60138;55.808;37.078;2023-09-18T07:16:35;28.58;;;8.85;;
70213;SDS011;60138;55.808;37.078;2023-09-18T07:19:00;19.40;;;8.20;;
70213;SDS011;60138;55.808;37.078;2023-09-18T07:21:27;22.38;;;7.28;;
70213;SDS011;60138;55.808;37.078;2023-09-18T07:23:52;24.63;;;6.50;;
70213;SDS011;60138;55.808;37.078;2023-09-18T07:26:18;19.83;;;8.57;;
70213;SDS011;60138;55.808;37.078;2023-09-18T07:28:44;21.17;;;7.50;;
70213;SDS011;60138;55.808;37.078;2023-09-18T07:31:11;16.93;;;6.23;;
70213;SDS011;60138;55.808;37.078;2023-09-18T07:33:36;19.38;;;10.90;;
70213;SDS011;60138;55.808;37.078;2023-09-18T07:36:03;31.52;;;10.70;;
70213;SDS011;60138;55.808;37.078;2023-09-18T07:38:28;21.58;;;7.47;;
70213;SDS011;60138;55.808;37.078;2023-09-18T07:40:54;15.90;;;7.30;;
70213;SDS011;60138;55.808;37.078;2023-09-18T07:43:20;12.15;;;8.00;;
70213;SDS011;60138;55.808;37.078;2023-09-18T07:45:46;12.87;;;7.03;;
70213;SDS011;60138;55.808;37.078;2023-09-18T07:48:14;21.48;;;8.73;;
70213;SDS011;60138;55.808;37.078;2023-09-18T07:50:42;12.98;;;7.68;;
70213;SDS011;60138;55.808;37.078;2023-09-18T07:53:09;12.47;;;6.73;;
70213;SDS011;60138;55.808;37.078;2023-09-18T07:55:34;22.40;;;8.15;;
70213;SDS011;60138;55.808;37.078;2023-09-18T07:58:00;12.70;;;7.10;;
70213;SDS011;60138;55.808;37.078;2023-09-18T08:00:26;19.00;;;9.23;;
70213;SDS011;60138;55.808;37.078;2023-09-18T08:02:53;15.00;;;7.22;;
70213;SDS011;60138;55.808;37.078;2023-09-18T08:05:22;16.33;;;6.97;;
70213;SDS011;60138;55.808;37.078;2023-09-18T08:07:48;17.50;;;8.35;;
70213;SDS011;60138;55.808;37.078;2023-09-18T08:10:13;24.33;;;9.83;;
70213;SDS011;60138;55.808;37.078;2023-09-18T08:12:39;19.60;;;7.40;;
70213;SDS011;60138;55.808;37.078;2023-09-18T08:15:05;15.30;;;8.90;;
70213;SDS011;60138;55.808;37.078;2023-09-18T08:17:32;12.73;;;7.43;;
70213;SDS011;60138;55.808;37.078;2023-09-18T08:19:59;29.33;;;7.97;;
70213;SDS011;60138;55.808;37.078;2023-09-18T08:22:24;14.77;;;7.47;;
70213;SDS011;60138;55.808;37.078;2023-09-18T08:24:51;16.42;;;7.80;;
70213;SDS011;60138;55.808;37.078;2023-09-18T08:27:17;15.73;;;6.60;;
70213;SDS011;60138;55.808;37.078;2023-09-18T08:29:44;14.70;;;7.22;;
70213;SDS011;60138;55.808;37.078;2023-09-18T08:32:11;15.40;;;7.72;;
70213;SDS011;60138;55.808;37.078;2023-09-18T08:34:37;13.52;;;7.13;;
70213;SDS011;60138;55.808;37.078;2023-09-18T08:37:03;13.15;;;7.72;;
70213;SDS011;60138;55.808;37.078;2023-09-18T08:39:29;20.00;;;7.70;;
70213;SDS011;60138;55.808;37.078;2023-09-18T08:41:57;23.60;;;9.77;;
70213;SDS011;60138;55.808;37.078;2023-09-18T08:44:28;15.13;;;6.95;;
70213;SDS011;60138;55.808;37.078;2023-09-18T08:46:54;20.83;;;9.10;;
70213;SDS011;60138;55.808;37.078;2023-09-18T08:49:21;17.75;;;8.43;;
70213;SDS011;60138;55.808;37.078;2023-09-18T08:51:49;12.27;;;7.90;;
70213;SDS011;60138;55.808;37.078;2023-09-18T08:54:19;12.77;;;7.40;;
70213;SDS011;60138;55.808;37.078;2023-09-18T08:56:46;45.50;;;15.87;;
70213;SDS011;60138;55.808;37.078;2023-09-18T08:59:12;29.35;;;10.63;;
70213;SDS011;60138;55.808;37.078;2023-09-18T09:01:38;18.35;;;9.35;;
70213;SDS011;60138;55.808;37.078;2023-09-18T09:04:04;15.68;;;9.02;;
70213;SDS011;60138;55.808;37.078;2023-09-18T09:06:30;18.90;;;9.57;;
70213;SDS011;60138;55.808;37.078;2023-09-18T09:08:59;18.95;;;8.27;;
70213;SDS011;60138;55.808;37.078;2023-09-18T09:11:24;14.85;;;8.02;;
70213;SDS011;60138;55.808;37.078;2023-09-18T09:16:48;10.50;;;7.75;;
70213;SDS011;60138;55.808;37.078;2023-09-18T09:19:18;11.30;;;7.80;;
70213;SDS011;60138;55.808;37.078;2023-09-18T09:21:52;12.00;;;8.35;;
70213;SDS011;60138;55.808;37.078;2023-09-18T09:24:18;13.40;;;8.07;;
70213;SDS011;60138;55.808;37.078;2023-09-18T09:27:10;13.23;;;8.10;;
70213;SDS011;60138;55.808;37.078;2023-09-18T09:29:36;12.63;;;8.50;;
70213;SDS011;60138;55.808;37.078;2023-09-18T09:32:15;12.60;;;7.72;;
70213;SDS011;60138;55.808;37.078;2023-09-18T09:34:42;13.77;;;8.18;;
70213;SDS011;60138;55.808;37.078;2023-09-18T09:37:09;19.80;;;12.35;;
70213;SDS011;60138;55.808;37.078;2023-09-18T09:39:45;32.43;;;18.27;;
70213;SDS011;60138;55.808;37.078;2023-09-18T09:42:12;28.65;;;15.60;;
70213;SDS011;60138;55.808;37.078;2023-09-18T09:44:37;33.22;;;16.33;;
70213;SDS011;60138;55.808;37.078;2023-09-18T09:47:05;23.77;;;12.70;;
70213;SDS011;60138;55.808;37.078;2023-09-18T09:49:33;22.45;;;13.38;;
70213;SDS011;60138;55.808;37.078;2023-09-18T09:52:17;11.63;;;7.80;;
70213;SDS011;60138;55.808;37.078;2023-09-18T09:54:44;9.23;;;6.60;;
70213;SDS011;60138;55.808;37.078;2023-09-18T09:57:09;11.40;;;6.00;;
70213;SDS011;60138;55.808;37.078;2023-09-18T09:59:35;10.05;;;6.95;;
70213;SDS011;60138;55.808;37.078;2023-09-18T10:02:01;10.73;;;6.70;;
70213;SDS011;60138;55.808;37.078;2023-09-18T10:04:28;9.07;;;5.80;;
70213;SDS011;60138;55.808;37.078;2023-09-18T10:06:58;9.32;;;5.93;;
70213;SDS011;60138;55.808;37.078;2023-09-18T10:09:33;12.73;;;5.82;;
70213;SDS011;60138;55.808;37.078;2023-09-18T10:12:01;10.75;;;6.30;;
70213;SDS011;60138;55.808;37.078;2023-09-18T10:14:32;9.63;;;6.33;;
70213;SDS011;60138;55.808;37.078;2023-09-18T10:17:03;7.90;;;5.43;;
70213;SDS011;60138;55.808;37.078;2023-09-18T10:19:44;8.93;;;5.60;;
70213;SDS011;60138;55.808;37.078;2023-09-18T10:24:57;10.90;;;6.22;;
70213;SDS011;60138;55.808;37.078;2023-09-18T10:27:29;8.60;;;5.40;;
70213;SDS011;60138;55.808;37.078;2023-09-18T10:29:55;8.20;;;5.68;;
70213;SDS011;60138;55.808;37.078;2023-09-18T10:32:21;8.40;;;5.57;;
70213;SDS011;60138;55.808;37.078;2023-09-18T10:34:48;9.75;;;5.53;;
70213;SDS011;60138;55.808;37.078;2023-09-18T10:37:14;8.80;;;5.60;;
70213;SDS011;60138;55.808;37.078;2023-09-18T10:39:41;7.25;;;5.47;;
70213;SDS011;60138;55.808;37.078;2023-09-18T10:42:08;8.15;;;4.60;;
70213;SDS011;60138;55.808;37.078;2023-09-18T10:44:34;10.23;;;5.03;;
70213;SDS011;60138;55.808;37.078;2023-09-18T10:47:02;7.00;;;4.35;;
70213;SDS011;60138;55.808;37.078;2023-09-18T10:49:29;6.80;;;4.20;;
70213;SDS011;60138;55.808;37.078;2023-09-18T10:51:55;5.95;;;3.83;;
70213;SDS011;60138;55.808;37.078;2023-09-18T10:54:22;9.43;;;5.45;;
70213;SDS011;60138;55.808;37.078;2023-09-18T10:56:50;11.00;;;4.55;;
70213;SDS011;60138;55.808;37.078;2023-09-18T10:59:16;8.57;;;4.47;;
70213;SDS011;60138;55.808;37.078;2023-09-18T11:01:42;9.50;;;5.38;;
70213;SDS011;60138;55.808;37.078;2023-09-18T11:04:08;6.47;;;3.90;;
70213;SDS011;60138;55.808;37.078;2023-09-18T11:09:19;7.03;;;4.20;;
70213;SDS011;60138;55.808;37.078;2023-09-18T11:12:09;5.75;;;3.95;;
70213;SDS011;60138;55.808;37.078;2023-09-18T11:14:42;6.30;;;3.83;;
70213;SDS011;60138;55.808;37.078;2023-09-18T11:17:29;7.20;;;4.47;;
70213;SDS011;60138;55.808;37.078;2023-09-18T11:22:36;5.50;;;3.90;;
70213;SDS011;60138;55.808;37.078;2023-09-18T11:28:00;5.05;;;3.10;;
70213;SDS011;60138;55.808;37.078;2023-09-18T11:30:27;5.53;;;3.97;;
70213;SDS011;60138;55.808;37.078;2023-09-18T11:32:54;5.30;;;3.75;;
70213;SDS011;60138;55.808;37.078;2023-09-18T11:35:21;12.53;;;4.97;;
70213;SDS011;60138;55.808;37.078;2023-09-18T11:37:47;9.70;;;3.95;;
70213;SDS011;60138;55.808;37.078;2023-09-18T11:40:31;7.55;;;4.20;;
70213;SDS011;60138;55.808;37.078;2023-09-18T11:45:49;11.15;;;3.50;;
70213;SDS011;60138;55.808;37.078;2023-09-18T11:48:15;7.20;;;3.40;;
70213;SDS011;60138;55.808;37.078;2023-09-18T11:50:41;7.05;;;2.90;;
70213;SDS011;60138;55.808;37.078;2023-09-18T11:53:08;4.70;;;3.05;;
70213;SDS011;60138;55.808;37.078;2023-09-18T12:12:07;4.80;;;3.10;;
70213;SDS011;60138;55.808;37.078;2023-09-18T12:14:34;9.20;;;4.57;;
70213;SDS011;60138;55.808;37.078;2023-09-18T12:17:01;6.20;;;3.67;;
70213;SDS011;60138;55.808;37.078;2023-09-18T12:19:28;7.45;;;4.80;;
70213;SDS011;60138;55.808;37.078;2023-09-18T12:21:54;7.53;;;4.68;;
70213;SDS011;60138;55.808;37.078;2023-09-18T12:24:23;7.77;;;5.17;;
70213;SDS011;60138;55.808;37.078;2023-09-18T12:26:50;7.28;;;5.00;;
70213;SDS011;60138;55.808;37.078;2023-09-18T12:29:17;8.07;;;4.50;;
70213;SDS011;60138;55.808;37.078;2023-09-18T12:31:43;7.47;;;4.68;;
70213;SDS011;60138;55.808;37.078;2023-09-18T12:34:18;7.17;;;4.60;;
70213;SDS011;60138;55.808;37.078;2023-09-18T12:36:44;8.50;;;3.80;;
70213;SDS011;60138;55.808;37.078;2023-09-18T12:39:11;7.75;;;4.57;;
70213;SDS011;60138;55.808;37.078;2023-09-18T12:41:37;6.83;;;4.00;;
70213;SDS011;60138;55.808;37.078;2023-09-18T12:44:04;8.85;;;5.43;;
70213;SDS011;60138;55.808;37.078;2023-09-18T12:46:31;7.50;;;5.10;;
70213;SDS011;60138;55.808;37.078;2023-09-18T12:48:57;6.93;;;4.32;;
70213;SDS011;60138;55.808;37.078;2023-09-18T12:51:29;7.40;;;5.37;;
70213;SDS011;60138;55.808;37.078;2023-09-18T12:53:59;6.53;;;4.00;;
70213;SDS011;60138;55.808;37.078;2023-09-18T12:56:26;6.47;;;4.28;;
70213;SDS011;60138;55.808;37.078;2023-09-18T12:58:52;6.82;;;4.63;;
70213;SDS011;60138;55.808;37.078;2023-09-18T13:01:18;6.73;;;4.80;;
70213;SDS011;60138;55.808;37.078;2023-09-18T13:03:44;7.75;;;6.03;;
70213;SDS011;60138;55.808;37.078;2023-09-18T13:06:11;10.70;;;7.00;;
70213;SDS011;60138;55.808;37.078;2023-09-18T13:08:40;13.70;;;8.23;;
70213;SDS011;60138;55.808;37.078;2023-09-18T13:11:06;9.90;;;6.37;;
70213;SDS011;60138;55.808;37.078;2023-09-18T13:13:32;13.07;;;6.53;;
70213;SDS011;60138;55.808;37.078;2023-09-18T13:15:58;9.82;;;6.45;;
70213;SDS011;60138;55.808;37.078;2023-09-18T13:18:29;11.75;;;5.95;;
70213;SDS011;60138;55.808;37.078;2023-09-18T13:20:55;9.03;;;5.80;;
70213;SDS011;60138;55.808;37.078;2023-09-18T13:23:31;10.13;;;6.18;;
70213;SDS011;60138;55.808;37.078;2023-09-18T13:26:01;9.60;;;6.45;;
70213;SDS011;60138;55.808;37.078;2023-09-18T13:28:29;12.45;;;6.97;;
70213;SDS011;60138;55.808;37.078;2023-09-18T13:30:55;11.27;;;7.77;;
70213;SDS011;60138;55.808;37.078;2023-09-18T13:33:21;11.73;;;8.02;;
70213;SDS011;60138;55.808;37.078;2023-09-18T13:35:48;9.80;;;6.40;;
70213;SDS011;60138;55.808;37.078;2023-09-18T13:38:13;9.80;;;5.75;;
70213;SDS011;60138;55.808;37.078;2023-09-18T13:40:40;9.00;;;5.85;;
70213;SDS011;60138;55.808;37.078;2023-09-18T13:43:10;10.90;;;6.90;;
70213;SDS011;60138;55.808;37.078;2023-09-18T13:45:37;13.23;;;8.35;;
70213;SDS011;60138;55.808;37.078;2023-09-18T13:48:04;14.85;;;8.13;;
70213;SDS011;60138;55.808;37.078;2023-09-18T13:50:31;18.63;;;11.20;;
70213;SDS011;60138;55.808;37.078;2023-09-18T13:52:58;12.68;;;7.88;;
70213;SDS011;60138;55.808;37.078;2023-09-18T13:55:25;10.57;;;6.47;;
70213;SDS011;60138;55.808;37.078;2023-09-18T13:57:50;12.23;;;6.53;;
70213;SDS011;60138;55.808;37.078;2023-09-18T14:00:16;11.73;;;6.90;;
70213;SDS011;60138;55.808;37.078;2023-09-18T14:02:42;10.05;;;6.05;;
70213;SDS011;60138;55.808;37.078;2023-09-18T14:05:09;14.40;;;8.40;;
70213;SDS011;60138;55.808;37.078;2023-09-18T14:07:36;10.13;;;7.15;;
70213;SDS011;60138;55.808;37.078;2023-09-18T14:10:03;9.77;;;6.23;;
70213;SDS011;60138;55.808;37.078;2023-09-18T14:12:30;7.93;;;5.70;;
70213;SDS011;60138;55.808;37.078;2023-09-18T14:14:56;11.15;;;6.00;;
70213;SDS011;60138;55.808;37.078;2023-09-18T14:17:22;9.73;;;6.65;;
70213;SDS011;60138;55.808;37.078;2023-09-18T14:19:48;8.07;;;5.27;;
70213;SDS011;60138;55.808;37.078;2023-09-18T14:22:14;7.05;;;5.32;;
70213;SDS011;60138;55.808;37.078;2023-09-18T14:24:40;8.63;;;5.60;;
70213;SDS011;60138;55.808;37.078;2023-09-18T14:27:06;13.30;;;8.65;;
70213;SDS011;60138;55.808;37.078;2023-09-18T14:29:32;9.10;;;6.77;;
70213;SDS011;60138;55.808;37.078;2023-09-18T14:32:02;8.00;;;5.45;;
70213;SDS011;60138;55.808;37.078;2023-09-18T14:34:28;6.57;;;5.10;;
70213;SDS011;60138;55.808;37.078;2023-09-18T14:36:54;8.73;;;5.05;;
70213;SDS011;60138;55.808;37.078;2023-09-18T14:39:19;13.33;;;5.97;;
70213;SDS011;60138;55.808;37.078;2023-09-18T14:41:45;9.63;;;6.20;;
70213;SDS011;60138;55.808;37.078;2023-09-18T14:44:11;17.47;;;6.67;;
70213;SDS011;60138;55.808;37.078;2023-09-18T14:46:37;13.18;;;6.30;;
70213;SDS011;60138;55.808;37.078;2023-09-18T14:49:03;12.70;;;6.63;;
70213;SDS011;60138;55.808;37.078;2023-09-18T14:51:31;14.27;;;7.05;;
70213;SDS011;60138;55.808;37.078;2023-09-18T14:53:57;20.67;;;7.13;;
70213;SDS011;60138;55.808;37.078;2023-09-18T14:56:23;14.38;;;6.60;;
70213;SDS011;60138;55.808;37.078;2023-09-18T14:58:49;9.13;;;6.22;;